createdAt,value
2023-01-15T00:01:59.684Z,5.00
2023-01-15T00:04:28.280Z,4.80
2023-01-15T00:06:56.910Z,5.30
2023-01-15T00:09:26.904Z,5.00
2023-01-15T00:11:55.804Z,5.10
2023-01-15T00:14:24.357Z,5.60
2023-01-15T00:16:53.332Z,5.00
2023-01-15T00:19:21.912Z,4.90
2023-01-15T00:21:50.399Z,5.70
2023-01-15T00:24:36.537Z,4.80
2023-01-15T00:27:24.998Z,4.80
2023-01-15T00:29:53.612Z,4.70
2023-01-15T00:32:22.359Z,5.40
2023-01-15T00:34:51.019Z,4.50
2023-01-15T00:37:19.660Z,4.80
2023-01-15T00:39:48.931Z,4.80
2023-01-15T00:42:19.063Z,4.70
2023-01-15T00:44:48.339Z,4.70
2023-01-15T00:47:16.924Z,4.70
2023-01-15T00:49:45.804Z,4.80
2023-01-15T00:52:14.378Z,4.90
2023-01-15T00:54:43.021Z,4.70
2023-01-15T00:57:12.449Z,4.70
2023-01-15T00:59:42.351Z,4.60
2023-01-15T01:02:10.988Z,4.80
2023-01-15T01:04:39.595Z,4.70
2023-01-15T01:07:08.155Z,4.80
2023-01-15T01:09:36.965Z,5.00
2023-01-15T01:12:05.763Z,5.10
2023-01-15T01:14:34.380Z,5.20
2023-01-15T01:17:04.246Z,5.20
2023-01-15T01:19:32.859Z,5.20
2023-01-15T01:22:01.539Z,5.20
2023-01-15T01:24:30.870Z,5.20
2023-01-15T01:26:59.456Z,5.60
2023-01-15T01:29:28.012Z,5.10
2023-01-15T01:31:56.530Z,5.10
2023-01-15T01:34:26.331Z,5.10
2023-01-15T01:36:54.939Z,5.00
2023-01-15T01:39:25.520Z,5.00
2023-01-15T01:41:55.604Z,5.90
2023-01-15T01:44:43.727Z,4.60
2023-01-15T01:47:18.785Z,4.20
2023-01-15T01:49:48.999Z,5.30
2023-01-15T01:52:20.593Z,4.90
2023-01-15T01:54:50.955Z,5.00
2023-01-15T01:57:20.409Z,5.10
2023-01-15T01:59:49.429Z,5.00
2023-01-15T02:02:19.893Z,4.90
2023-01-15T02:04:50.062Z,4.90
2023-01-15T02:07:18.818Z,5.30
2023-01-15T02:09:47.493Z,5.10
2023-01-15T02:12:20.328Z,4.90
2023-01-15T02:14:52.164Z,4.60
2023-01-15T02:17:22.886Z,4.40
2023-01-15T02:19:57.796Z,4.60
2023-01-15T02:22:32.890Z,4.40
2023-01-15T02:25:08.320Z,3.60
2023-01-15T02:27:39.618Z,4.40
2023-01-15T02:30:11.558Z,4.20
2023-01-15T02:32:52.735Z,4.70
2023-01-15T02:35:23.450Z,4.80
2023-01-15T02:37:53.234Z,4.50
2023-01-15T02:40:25.505Z,5.20
2023-01-15T02:45:27.226Z,5.00
2023-01-15T02:48:01.913Z,5.00
2023-01-15T02:50:34.105Z,5.10
2023-01-15T02:53:07.989Z,5.40
2023-01-15T02:55:42.018Z,5.30
2023-01-15T03:00:44.878Z,5.10
2023-01-15T03:03:15.578Z,4.80
2023-01-15T03:05:49.716Z,4.70
2023-01-15T03:08:19.820Z,4.90
2023-01-15T03:10:54.077Z,4.70
2023-01-15T03:13:27.695Z,4.70
2023-01-15T03:16:19.891Z,5.20
2023-01-15T03:18:51.518Z,4.70
2023-01-15T03:21:22.463Z,4.90
2023-01-15T03:23:54.795Z,4.80
2023-01-15T03:26:27.030Z,4.80
2023-01-15T03:28:57.116Z,5.10
2023-01-15T03:31:27.323Z,5.00
2023-01-15T03:33:55.893Z,4.80
2023-01-15T03:36:25.577Z,4.70
2023-01-15T03:38:56.210Z,4.60
2023-01-15T03:41:47.407Z,4.70
2023-01-15T03:44:24.501Z,4.70
2023-01-15T03:46:59.610Z,4.60
2023-01-15T03:49:32.754Z,5.30
2023-01-15T03:52:07.715Z,4.50
2023-01-15T03:54:44.996Z,4.60
2023-01-15T03:57:16.284Z,4.70
2023-01-15T03:59:48.355Z,4.60
2023-01-15T04:02:20.310Z,4.50
2023-01-15T04:04:51.567Z,4.80
2023-01-15T04:07:21.135Z,4.60
2023-01-15T04:09:49.770Z,4.60
2023-01-15T04:12:19.119Z,4.50
2023-01-15T04:14:49.939Z,4.50
2023-01-15T04:17:23.439Z,4.30
2023-01-15T04:19:52.685Z,4.50
2023-01-15T04:22:21.209Z,4.50
2023-01-15T04:24:49.709Z,4.50
2023-01-15T04:27:18.195Z,4.50
2023-01-15T04:29:46.800Z,4.60
2023-01-15T04:32:15.295Z,4.50
2023-01-15T04:34:45.161Z,4.40
2023-01-15T04:37:13.694Z,4.50
2023-01-15T04:39:42.115Z,4.60
2023-01-15T04:44:56.940Z,4.50
2023-01-15T04:47:25.520Z,4.60
2023-01-15T04:49:55.389Z,4.70
2023-01-15T04:52:23.858Z,5.00
2023-01-15T04:54:52.562Z,4.60
2023-01-15T04:57:21.079Z,4.50
2023-01-15T05:02:18.344Z,4.60
2023-01-15T05:04:47.235Z,4.80
2023-01-15T05:07:17.042Z,4.50
2023-01-15T05:09:45.757Z,4.50
2023-01-15T05:14:43.067Z,4.40
2023-01-15T05:17:11.905Z,4.50
2023-01-15T05:19:40.610Z,4.70
2023-01-15T05:22:09.664Z,4.60
2023-01-15T05:27:08.244Z,6.50
2023-01-15T05:29:36.878Z,4.90
2023-01-15T05:32:05.512Z,4.70
2023-01-15T05:34:34.097Z,5.00
2023-01-15T05:37:03.117Z,4.90
2023-01-15T05:39:31.637Z,5.40
2023-01-15T05:42:00.131Z,5.50
2023-01-15T05:44:30.780Z,5.00
2023-01-15T05:47:00.430Z,5.00
2023-01-15T05:49:29.965Z,5.10
2023-01-15T05:52:00.507Z,5.10
2023-01-15T05:54:30.095Z,5.10
2023-01-15T05:56:58.869Z,5.10
2023-01-15T05:59:28.345Z,5.00
2023-01-15T06:01:58.205Z,5.10
2023-01-15T06:04:26.917Z,5.30
2023-01-15T06:06:57.560Z,5.30
2023-01-15T06:09:28.340Z,4.90
2023-01-15T06:11:57.176Z,5.20
2023-01-15T06:14:25.693Z,5.70
2023-01-15T06:16:54.332Z,5.10
2023-01-15T06:19:24.126Z,4.90
2023-01-15T06:21:52.745Z,5.30
2023-01-15T06:24:21.283Z,5.70
2023-01-15T06:26:49.934Z,5.30
2023-01-15T06:29:20.477Z,5.70
2023-01-15T06:31:49.670Z,5.20
2023-01-15T06:34:18.400Z,5.20
2023-01-15T06:36:48.335Z,5.40
2023-01-15T06:39:16.871Z,5.30
2023-01-15T06:42:02.946Z,5.40
2023-01-15T06:44:49.515Z,1.60
2023-01-15T06:47:22.824Z,2.10
2023-01-15T06:49:53.234Z,5.00
2023-01-15T06:52:23.267Z,5.00
2023-01-15T06:54:52.103Z,5.80
2023-01-15T06:57:20.640Z,5.00
2023-01-15T06:59:49.585Z,5.00
2023-01-15T07:02:19.059Z,4.80
2023-01-15T07:04:47.986Z,5.00
2023-01-15T07:07:17.197Z,5.10
2023-01-15T07:09:47.017Z,5.00
2023-01-15T07:12:15.801Z,5.10
2023-01-15T07:14:44.688Z,4.80
2023-01-15T07:17:13.243Z,4.40
2023-01-15T07:19:41.777Z,4.90
2023-01-15T07:22:11.249Z,5.00
2023-01-15T07:24:39.774Z,4.90
2023-01-15T07:27:09.690Z,5.10
2023-01-15T07:29:38.224Z,4.80
2023-01-15T07:32:07.123Z,5.20
2023-01-15T07:34:35.789Z,4.80
2023-01-15T07:37:04.415Z,4.90
2023-01-15T07:39:33.114Z,5.00
2023-01-15T07:42:18.844Z,4.70
2023-01-15T07:45:06.369Z,5.10
2023-01-15T07:47:53.302Z,5.30
2023-01-15T07:50:22.979Z,5.10
2023-01-15T07:52:53.442Z,5.00
2023-01-15T07:55:22.887Z,7.90
2023-01-15T07:57:52.450Z,5.10
2023-01-15T08:00:23.453Z,5.20
2023-01-15T08:02:52.287Z,5.40
2023-01-15T08:05:20.876Z,4.90
2023-01-15T08:07:50.643Z,5.80
2023-01-15T08:10:20.777Z,5.90
2023-01-15T08:13:07.877Z,5.20
2023-01-15T08:15:39.862Z,5.20
2023-01-15T08:18:08.574Z,5.10
2023-01-15T08:20:37.802Z,5.30
2023-01-15T08:23:06.432Z,5.20
2023-01-15T08:25:34.945Z,5.30
2023-01-15T08:28:04.300Z,5.10
2023-01-15T08:30:32.962Z,5.10
2023-01-15T08:33:03.790Z,5.20
2023-01-15T08:35:34.250Z,5.70
2023-01-15T08:38:05.231Z,4.90
2023-01-15T08:40:33.825Z,4.90
2023-01-15T08:43:02.320Z,5.70
2023-01-15T08:45:31.056Z,5.00
2023-01-15T08:48:00.433Z,4.90
2023-01-15T08:50:30.357Z,4.90
2023-01-15T08:52:58.852Z,5.10
2023-01-15T08:55:27.809Z,5.30
2023-01-15T08:57:56.509Z,5.20
2023-01-15T09:00:25.363Z,5.90
2023-01-15T09:02:53.841Z,5.30
2023-01-15T09:05:22.385Z,5.50
2023-01-15T09:07:52.811Z,5.20
2023-01-15T09:10:21.518Z,5.40
2023-01-15T09:12:50.449Z,5.70
2023-01-15T09:15:19.063Z,5.00
2023-01-15T09:17:47.775Z,5.20
2023-01-15T09:20:16.411Z,5.00
2023-01-15T09:22:45.123Z,5.20
2023-01-15T09:25:16.337Z,4.90
2023-01-15T09:27:44.969Z,5.20
2023-01-15T09:30:17.355Z,5.30
2023-01-15T09:32:46.094Z,5.20
2023-01-15T09:35:14.895Z,5.00
2023-01-15T09:37:43.734Z,5.20
2023-01-15T09:40:23.800Z,4.90
2023-01-15T09:42:56.497Z,5.40
2023-01-15T09:45:27.149Z,5.00
2023-01-15T09:48:11.848Z,5.20
2023-01-15T09:50:47.528Z,5.30
2023-01-15T09:53:27.662Z,5.20
2023-01-15T09:55:58.422Z,5.00
2023-01-15T09:58:32.785Z,5.70
2023-01-15T10:01:01.937Z,5.30
2023-01-15T10:03:33.852Z,5.30
2023-01-15T10:06:10.067Z,5.30
2023-01-15T10:08:41.909Z,5.20
2023-01-15T10:11:23.216Z,5.20
2023-01-15T10:13:54.881Z,5.30
2023-01-15T10:16:24.789Z,5.30
2023-01-15T10:18:54.094Z,5.40
2023-01-15T10:21:29.788Z,5.40
2023-01-15T10:24:03.076Z,5.40
2023-01-15T10:26:36.574Z,5.20
2023-01-15T10:29:10.801Z,5.50
2023-01-15T10:31:44.196Z,5.60
2023-01-15T10:34:33.823Z,5.50
2023-01-15T10:37:06.148Z,5.00
2023-01-15T10:39:40.324Z,5.50
2023-01-15T10:42:16.702Z,6.20
2023-01-15T10:44:47.912Z,6.10
2023-01-15T10:47:18.922Z,5.50
2023-01-15T10:49:49.194Z,5.50
2023-01-15T10:52:23.663Z,5.60
2023-01-15T10:54:55.239Z,5.80
2023-01-15T10:57:31.431Z,5.50
2023-01-15T11:00:01.089Z,5.60
2023-01-15T11:02:34.286Z,5.70
2023-01-15T11:05:03.566Z,5.70
2023-01-15T11:07:37.091Z,5.70
2023-01-15T11:10:07.738Z,5.60
2023-01-15T11:12:56.047Z,5.80
2023-01-15T11:15:43.743Z,5.70
2023-01-15T11:18:31.829Z,5.90
2023-01-15T11:21:01.669Z,5.60
2023-01-15T11:23:36.341Z,5.70
2023-01-15T11:26:05.329Z,5.50
2023-01-15T11:28:40.268Z,6.00
2023-01-15T11:31:09.514Z,8.40
2023-01-15T11:33:38.736Z,5.70
2023-01-15T11:36:08.964Z,5.70
2023-01-15T11:38:44.455Z,5.70
2023-01-15T11:41:21.667Z,5.90
2023-01-15T11:44:16.205Z,5.60
2023-01-15T11:47:04.140Z,5.80
2023-01-15T11:49:50.714Z,6.50
2023-01-15T11:52:21.709Z,5.70
2023-01-15T11:54:52.655Z,5.80
2023-01-15T11:57:25.906Z,5.80
2023-01-15T11:59:55.975Z,5.90
2023-01-15T12:02:30.455Z,5.80
2023-01-15T12:05:00.943Z,5.80
2023-01-15T12:07:30.130Z,5.90
2023-01-15T12:10:14.475Z,5.80
2023-01-15T12:12:47.430Z,5.50
2023-01-15T12:15:24.925Z,5.70
2023-01-15T12:17:59.177Z,5.70
2023-01-15T12:20:31.018Z,6.00
2023-01-15T12:23:08.942Z,5.70
2023-01-15T12:25:44.086Z,5.60
2023-01-15T12:28:14.196Z,5.60
2023-01-15T12:30:46.656Z,5.70
2023-01-15T12:33:19.728Z,5.60
2023-01-15T12:35:56.359Z,5.70
2023-01-15T12:38:31.274Z,5.60
2023-01-15T12:41:01.655Z,5.60
2023-01-15T12:43:47.773Z,5.60
2023-01-15T12:46:18.840Z,5.60
2023-01-15T12:48:51.319Z,5.80
2023-01-15T12:51:24.524Z,5.70
2023-01-15T12:53:54.406Z,5.80
2023-01-15T12:56:26.279Z,5.80
2023-01-15T12:58:56.804Z,5.70
2023-01-15T13:01:30.332Z,5.70
2023-01-15T13:04:09.075Z,5.60
2023-01-15T13:06:40.491Z,5.60
2023-01-15T13:09:12.210Z,5.60
2023-01-15T13:11:41.153Z,5.90
2023-01-15T13:14:16.185Z,5.50
2023-01-15T13:16:49.970Z,5.70
2023-01-15T13:19:23.407Z,5.80
2023-01-15T13:21:53.199Z,5.70
2023-01-15T13:24:36.610Z,5.60
2023-01-15T13:27:09.348Z,5.50
2023-01-15T13:29:44.783Z,5.60
2023-01-15T13:32:18.236Z,5.60
2023-01-15T13:34:48.725Z,5.70
2023-01-15T13:37:23.171Z,5.60
2023-01-15T13:39:53.087Z,6.00
2023-01-15T13:42:37.115Z,5.70
2023-01-15T13:45:26.600Z,5.60
2023-01-15T13:47:58.468Z,5.50
2023-01-15T13:50:30.066Z,5.70
2023-01-15T13:53:07.608Z,5.60
2023-01-15T13:55:37.740Z,5.50
2023-01-15T13:58:18.130Z,5.80
2023-01-15T14:00:47.106Z,5.70
2023-01-15T14:03:28.127Z,5.70
2023-01-15T14:05:57.178Z,5.60
2023-01-15T14:08:27.555Z,6.40
2023-01-15T14:10:57.837Z,5.60
2023-01-15T14:13:46.607Z,5.60
2023-01-15T14:16:19.694Z,5.70
2023-01-15T14:18:59.027Z,5.70
2023-01-15T14:21:31.989Z,5.60
2023-01-15T14:24:09.839Z,5.50
2023-01-15T14:26:43.821Z,5.70
2023-01-15T14:29:27.163Z,5.50
2023-01-15T14:32:02.381Z,5.10
2023-01-15T14:34:34.610Z,5.60
2023-01-15T14:37:04.761Z,5.60
2023-01-15T14:39:42.619Z,5.50
2023-01-15T14:42:31.964Z,5.60
2023-01-15T14:45:03.068Z,5.70
2023-01-15T14:47:35.292Z,5.70
2023-01-15T14:50:18.773Z,5.70
2023-01-15T14:52:50.175Z,5.60
2023-01-15T14:55:19.164Z,5.60
2023-01-15T14:57:52.726Z,5.70
2023-01-15T15:00:22.345Z,5.60
2023-01-15T15:02:52.000Z,6.00
2023-01-15T15:05:22.618Z,5.70
2023-01-15T15:07:53.610Z,5.80
2023-01-15T15:10:25.076Z,5.20
2023-01-15T15:12:59.711Z,5.80
2023-01-15T15:15:38.224Z,8.40
2023-01-15T15:18:10.281Z,6.00
2023-01-15T15:20:45.064Z,6.30
2023-01-15T15:23:16.914Z,6.30
2023-01-15T15:25:49.617Z,6.30
2023-01-15T15:28:18.192Z,6.40
2023-01-15T15:30:47.000Z,6.50
2023-01-15T15:33:18.610Z,6.40
2023-01-15T15:35:48.562Z,6.50
2023-01-15T15:38:20.124Z,6.60
2023-01-15T15:40:51.338Z,7.00
2023-01-15T15:43:39.329Z,6.00
2023-01-15T15:46:40.477Z,6.60
2023-01-15T15:49:09.993Z,6.80
2023-01-15T15:51:40.367Z,6.70
2023-01-15T15:54:15.936Z,7.10
2023-01-15T15:56:47.439Z,7.00
2023-01-15T15:59:19.074Z,6.90
2023-01-15T16:01:47.854Z,7.40
2023-01-15T16:04:17.759Z,7.00
2023-01-15T16:06:47.006Z,6.90
2023-01-15T16:09:21.624Z,6.50
2023-01-15T16:11:51.234Z,6.60
2023-01-15T16:14:21.534Z,7.00
2023-01-15T16:16:51.106Z,7.00
2023-01-15T16:19:22.809Z,6.90
2023-01-15T16:21:53.160Z,6.90
2023-01-15T16:24:27.345Z,7.60
2023-01-15T16:26:58.653Z,6.80
2023-01-15T16:29:28.395Z,7.10
2023-01-15T16:31:59.793Z,6.80
2023-01-15T16:34:30.739Z,7.00
2023-01-15T16:37:00.028Z,6.60
2023-01-15T16:39:31.335Z,6.70
2023-01-15T16:42:02.501Z,6.90
2023-01-15T16:44:36.316Z,6.30
2023-01-15T16:47:05.511Z,6.80
2023-01-15T16:49:34.665Z,6.80
2023-01-15T16:52:03.976Z,6.30
2023-01-15T16:54:44.357Z,6.50
2023-01-15T16:57:32.251Z,6.40
2023-01-15T17:00:03.283Z,6.40
2023-01-15T17:02:36.342Z,6.10
2023-01-15T17:05:15.240Z,6.30
2023-01-15T17:07:47.886Z,6.20
2023-01-15T17:10:23.047Z,6.50
2023-01-15T17:12:52.221Z,6.60
2023-01-15T17:15:40.494Z,5.70
2023-01-15T17:18:27.951Z,6.00
2023-01-15T17:20:56.692Z,6.40
2023-01-15T17:23:27.800Z,5.90
2023-01-15T17:25:59.011Z,10.30
2023-01-15T17:28:27.899Z,5.60
2023-01-15T17:30:59.872Z,5.90
2023-01-15T17:33:28.780Z,5.80
2023-01-15T17:36:00.754Z,6.10
2023-01-15T17:38:29.633Z,5.80
2023-01-15T17:41:03.915Z,5.50
2023-01-15T17:43:32.736Z,5.90
2023-01-15T17:46:03.112Z,5.70
2023-01-15T17:48:33.188Z,5.70
2023-01-15T17:51:02.186Z,5.70
2023-01-15T17:53:32.481Z,6.00
2023-01-15T17:56:20.043Z,6.50
2023-01-15T17:59:06.522Z,5.80
2023-01-15T18:01:55.670Z,5.80
2023-01-15T18:04:43.553Z,5.90
2023-01-15T18:07:12.801Z,5.80
2023-01-15T18:09:42.310Z,5.80
2023-01-15T18:12:12.276Z,5.70
2023-01-15T18:14:41.051Z,5.80
2023-01-15T18:17:09.567Z,5.80
2023-01-15T18:19:38.180Z,5.80
2023-01-15T18:22:06.757Z,5.70
2023-01-15T18:24:35.422Z,5.70
2023-01-15T18:27:03.941Z,5.60
2023-01-15T18:29:38.615Z,5.60
2023-01-15T18:32:08.572Z,5.70
2023-01-15T18:34:37.325Z,5.60
2023-01-15T18:37:05.894Z,5.70
2023-01-15T18:39:37.221Z,5.70
2023-01-15T18:42:23.442Z,5.60
2023-01-15T18:45:10.764Z,5.60
2023-01-15T18:47:41.100Z,5.60
2023-01-15T18:50:10.468Z,5.80
2023-01-15T18:52:53.900Z,5.60
2023-01-15T18:55:23.518Z,5.70
2023-01-15T18:57:52.113Z,5.60
2023-01-15T19:00:23.444Z,5.70
2023-01-15T19:02:52.489Z,5.70
2023-01-15T19:05:21.084Z,5.50
2023-01-15T19:07:49.721Z,5.60
2023-01-15T19:10:19.571Z,5.40
2023-01-15T19:12:48.173Z,5.30
2023-01-15T19:15:35.581Z,5.50
2023-01-15T19:18:23.419Z,5.30
2023-01-15T19:20:52.152Z,5.10
2023-01-15T19:23:21.586Z,5.10
2023-01-15T19:25:50.633Z,5.10
2023-01-15T19:28:21.031Z,5.10
2023-01-15T19:31:12.858Z,5.00
2023-01-15T19:33:42.827Z,5.10
2023-01-15T19:36:11.402Z,5.10
2023-01-15T19:38:41.115Z,6.10
2023-01-15T19:41:28.028Z,5.00
2023-01-15T19:44:14.448Z,4.90
2023-01-15T19:47:01.012Z,4.90
2023-01-15T19:49:51.577Z,4.80
2023-01-15T19:52:37.876Z,4.80
2023-01-15T19:55:08.816Z,4.70
2023-01-15T19:57:37.607Z,4.80
2023-01-15T20:00:06.807Z,4.70
2023-01-15T20:02:37.332Z,4.50
2023-01-15T20:05:08.318Z,4.50
2023-01-15T20:07:36.984Z,4.70
2023-01-15T20:10:05.849Z,4.50
2023-01-15T20:12:52.518Z,4.70
2023-01-15T20:15:21.747Z,4.60
2023-01-15T20:17:50.651Z,4.60
2023-01-15T20:20:21.356Z,4.80
2023-01-15T20:22:50.261Z,4.00
2023-01-15T20:25:19.113Z,4.80
2023-01-15T20:27:47.783Z,4.50
2023-01-15T20:30:18.850Z,4.60
2023-01-15T20:32:48.687Z,5.20
2023-01-15T20:35:20.717Z,4.40
2023-01-15T20:37:51.160Z,4.60
2023-01-15T20:40:21.448Z,8.10
2023-01-15T20:43:08.849Z,4.50
2023-01-15T20:45:38.191Z,5.30
2023-01-15T20:48:24.856Z,4.60
2023-01-15T20:51:02.416Z,4.40
2023-01-15T20:53:35.484Z,4.40
2023-01-15T20:56:05.137Z,4.40
2023-01-15T20:58:33.781Z,4.40
2023-01-15T21:01:06.732Z,4.10
2023-01-15T21:03:35.868Z,4.20
2023-01-15T21:06:05.147Z,4.40
2023-01-15T21:08:35.704Z,3.80
2023-01-15T21:11:04.359Z,4.20
2023-01-15T21:13:32.998Z,4.10
2023-01-15T21:16:02.828Z,4.70
2023-01-15T21:18:32.220Z,4.20
2023-01-15T21:21:00.984Z,4.20
2023-01-15T21:23:29.580Z,4.30
2023-01-15T21:26:02.512Z,4.40
2023-01-15T21:28:31.111Z,4.20
2023-01-15T21:31:04.101Z,4.30
2023-01-15T21:33:32.700Z,4.30
2023-01-15T21:36:05.670Z,4.60
2023-01-15T21:38:34.447Z,4.40
2023-01-15T21:41:09.585Z,4.40
2023-01-15T21:43:55.720Z,4.30
2023-01-15T21:46:27.562Z,4.40
2023-01-15T21:48:56.371Z,3.50
2023-01-15T21:51:25.386Z,4.20
2023-01-15T21:53:54.101Z,4.50
2023-01-15T21:56:23.847Z,4.30
2023-01-15T21:58:52.470Z,4.40
2023-01-15T22:01:21.171Z,4.40
2023-01-15T22:03:49.865Z,4.20
2023-01-15T22:06:18.335Z,4.40
2023-01-15T22:08:46.983Z,4.40
2023-01-15T22:11:16.474Z,4.00
2023-01-15T22:13:48.009Z,4.40
2023-01-15T22:16:17.062Z,4.40
2023-01-15T22:18:45.646Z,4.40
2023-01-15T22:21:15.633Z,4.70
2023-01-15T22:23:44.725Z,4.50
2023-01-15T22:26:17.888Z,4.60
2023-01-15T22:28:48.337Z,4.90
2023-01-15T22:31:18.031Z,4.60
2023-01-15T22:33:46.959Z,5.30
2023-01-15T22:36:17.093Z,5.10
2023-01-15T22:38:47.085Z,4.50
2023-01-15T22:41:35.690Z,5.30
2023-01-15T22:44:06.002Z,4.40
2023-01-15T22:46:34.690Z,4.40
2023-01-15T22:49:03.368Z,4.40
2023-01-15T22:51:32.043Z,4.90
2023-01-15T22:54:00.726Z,4.30
2023-01-15T22:56:29.255Z,4.60
2023-01-15T22:58:57.718Z,4.10
2023-01-15T23:01:27.656Z,4.30
2023-01-15T23:03:56.593Z,4.20
2023-01-15T23:06:26.325Z,3.60
2023-01-15T23:08:58.057Z,4.10
2023-01-15T23:11:27.014Z,4.00
2023-01-15T23:16:24.517Z,4.20
2023-01-15T23:18:54.375Z,4.20
2023-01-15T23:21:23.939Z,4.40
2023-01-15T23:23:54.611Z,4.00
2023-01-15T23:26:23.561Z,4.20
2023-01-15T23:28:52.556Z,4.10
2023-01-15T23:31:21.448Z,4.00
2023-01-15T23:33:49.958Z,3.80
2023-01-15T23:36:19.894Z,4.00
2023-01-15T23:38:48.358Z,4.00
2023-01-15T23:41:17.962Z,3.90
2023-01-15T23:44:04.626Z,3.70
2023-01-15T23:46:36.189Z,3.30
2023-01-15T23:49:06.871Z,4.00
2023-01-15T23:51:37.629Z,4.00
2023-01-15T23:54:06.438Z,3.40
2023-01-15T23:56:34.960Z,3.40
2023-01-15T23:59:03.463Z,4.70
